Time;durP1;ratioP1;P1;durP2;ratioP2;P2;SDS_P1;SDS_P2;PMS_P1;PMS_P2;Temp;Humidity;BMP_temperature;BMP_pressure;BME280_temperature;BME280_humidity;BME280_pressure;Samples;Min_cycle;Max_cycle;Signal;HPM_P1;HPM_P2
2023/04/29 00:02:13;;;;;;;6.60;1.80;;;10.50;99.90;;;;;;5073443;28;20024;-72
2023/04/29 00:04:39;;;;;;;5.05;4.60;;;10.40;99.90;;;;;;5073310;28;20044;-72
2023/04/29 00:07:06;;;;;;;13.80;5.45;;;10.60;99.90;;;;;;5073581;28;20028;-72
2023/04/29 00:09:32;;;;;;;1.95;1.63;;;10.60;99.90;;;;;;5073281;28;20543;-72
2023/04/29 00:11:58;;;;;;;6.88;4.55;;;10.70;99.90;;;;;;5070491;28;20056;-72
2023/04/29 00:14:24;;;;;;;1.48;1.38;;;10.80;99.90;;;;;;5064355;28;20123;-73
2023/04/29 00:16:50;;;;;;;8.45;4.53;;;10.70;99.90;;;;;;5071862;28;20062;-72
2023/04/29 00:19:17;;;;;;;8.20;5.53;;;10.60;99.90;;;;;;5073221;28;20417;-72
2023/04/29 00:21:43;;;;;;;8.80;7.03;;;10.50;99.90;;;;;;5072955;28;20569;-72
2023/04/29 00:24:08;;;;;;;8.20;2.60;;;10.50;99.90;;;;;;5072099;28;20028;-72
2023/04/29 00:26:34;;;;;;;2.95;2.67;;;10.40;99.90;;;;;;5073171;28;20023;-72
2023/04/29 00:29:00;;;;;;;15.63;7.97;;;10.40;99.90;;;;;;5073089;28;20028;-72
2023/04/29 00:31:26;;;;;;;2.40;2.20;;;10.40;99.90;;;;;;5071149;28;20483;-71
2023/04/29 00:33:52;;;;;;;3.92;2.88;;;10.40;99.90;;;;;;5072904;28;20058;-72
2023/04/29 00:36:18;;;;;;;1.45;1.40;;;10.40;99.90;;;;;;5072932;28;20020;-72
2023/04/29 00:38:43;;;;;;;7.05;2.95;;;10.70;99.90;;;;;;5072748;28;20025;-72
2023/04/29 00:41:09;;;;;;;1.85;1.48;;;10.80;99.90;;;;;;5072767;28;20032;-72
2023/04/29 00:43:35;;;;;;;2.60;1.55;;;10.80;99.90;;;;;;5073008;28;20037;-72
2023/04/29 00:46:01;;;;;;;2.95;1.85;;;10.70;99.90;;;;;;5072451;28;20385;-72
2023/04/29 00:48:27;;;;;;;4.90;3.55;;;10.80;99.90;;;;;;5072928;28;20059;-72
2023/04/29 00:50:52;;;;;;;0.40;0.40;;;11.00;99.90;;;;;;5072402;28;20042;-72
2023/04/29 00:53:21;;;;;;;1.55;1.45;;;10.90;99.90;;;;;;5072824;28;20488;-72
2023/04/29 00:55:50;;;;;;;13.35;3.70;;;10.80;99.90;;;;;;5054474;28;20028;-72
2023/04/29 00:58:18;;;;;;;3.03;1.90;;;10.70;99.90;;;;;;5072844;28;20036;-72
2023/04/29 01:00:45;;;;;;;2.53;2.22;;;10.60;99.90;;;;;;5072297;28;20107;-72
2023/04/29 01:03:12;;;;;;;6.85;3.58;;;10.60;99.90;;;;;;5072804;28;20054;-72
2023/04/29 01:05:38;;;;;;;3.65;3.30;;;10.40;99.90;;;;;;5072824;28;20028;-72
2023/04/29 01:08:23;;;;;;;1.48;1.27;;;10.50;99.90;;;;;;5054667;28;20024;-72
2023/04/29 01:11:11;;;;;;;2.55;2.22;;;10.50;99.90;;;;;;5054447;28;20038;-72
2023/04/29 01:13:45;;;;;;;14.82;5.15;;;10.50;99.90;;;;;;5054645;28;20048;-72
2023/04/29 01:16:18;;;;;;;4.50;2.78;;;10.40;99.90;;;;;;5054101;28;20024;-72
2023/04/29 01:18:53;;;;;;;1.23;1.20;;;10.20;99.90;;;;;;5054536;28;20393;-72
2023/04/29 01:21:24;;;;;;;8.52;6.47;;;10.40;99.90;;;;;;5050457;28;20029;-72
2023/04/29 01:23:54;;;;;;;14.52;5.20;;;10.40;99.90;;;;;;5044141;28;20040;-72
2023/04/29 01:26:22;;;;;;;0.85;0.85;;;10.50;99.90;;;;;;5041857;28;20024;-72
2023/04/29 01:29:28;;;;;;;0.55;0.50;;;10.40;99.90;;;;;;5052769;28;20384;-72
2023/04/29 01:32:28;;;;;;;0.30;0.25;;;10.50;99.90;;;;;;5032314;28;20064;-72
2023/04/29 01:35:33;;;;;;;0.47;0.47;;;10.50;99.90;;;;;;5051277;28;20432;-72
2023/04/29 01:38:17;;;;;;;1.13;1.10;;;10.60;99.90;;;;;;5072070;28;20078;-72
2023/04/29 01:40:55;;;;;;;1.60;0.98;;;10.50;99.90;;;;;;5072303;28;20033;-72
2023/04/29 01:43:27;;;;;;;9.75;5.40;;;10.40;99.90;;;;;;5049828;28;20029;-72
2023/04/29 01:45:56;;;;;;;1.90;1.75;;;10.40;99.90;;;;;;5051189;28;20021;-72
2023/04/29 01:48:23;;;;;;;1.33;1.33;;;10.30;99.90;;;;;;5041819;28;20465;-72
2023/04/29 01:50:49;;;;;;;2.35;1.77;;;10.30;99.90;;;;;;5058310;28;20048;-72
2023/04/29 01:53:16;;;;;;;11.40;4.53;;;10.30;99.90;;;;;;5057883;28;20036;-71
2023/04/29 01:55:42;;;;;;;3.63;3.15;;;10.20;99.90;;;;;;5058041;28;20082;-72
2023/04/29 01:58:41;;;;;;;5.00;3.47;;;10.30;99.90;;;;;;5051399;28;20476;-74
2023/04/29 02:01:27;;;;;;;2.55;1.83;;;10.20;99.90;;;;;;5060575;28;20032;-72
2023/04/29 02:03:53;;;;;;;10.68;1.70;;;10.30;99.90;;;;;;5041506;28;20024;-72
2023/04/29 02:06:19;;;;;;;0.60;0.60;;;10.40;99.90;;;;;;5053263;28;20028;-72
2023/04/29 02:08:48;;;;;;;6.93;2.33;;;10.30;99.90;;;;;;5038075;28;20031;-72
2023/04/29 02:11:15;;;;;;;7.38;4.32;;;10.40;99.90;;;;;;5051719;28;20017;-72
2023/04/29 02:13:41;;;;;;;3.42;1.88;;;10.30;99.90;;;;;;5056790;28;20127;-72
2023/04/29 02:16:09;;;;;;;16.92;4.13;;;10.30;99.90;;;;;;5057905;28;20530;-72
2023/04/29 02:18:37;;;;;;;5.63;3.17;;;10.40;99.90;;;;;;5057483;28;20484;-74
2023/04/29 02:21:04;;;;;;;3.25;1.60;;;10.20;99.90;;;;;;5057863;28;20056;-73
2023/04/29 02:23:34;;;;;;;1.52;1.42;;;10.30;99.90;;;;;;5057291;28;20028;-73
2023/04/29 02:26:00;;;;;;;0.22;0.22;;;10.20;99.90;;;;;;5075613;28;20035;-72
2023/04/29 02:28:26;;;;;;;5.38;3.05;;;10.30;99.90;;;;;;5074910;28;20031;-72
2023/04/29 02:30:53;;;;;;;4.35;2.08;;;10.30;99.90;;;;;;5057528;28;20029;-73
2023/04/29 02:33:19;;;;;;;0.45;0.45;;;10.30;99.90;;;;;;5062414;28;20095;-72
2023/04/29 02:35:45;;;;;;;9.50;3.22;;;10.40;99.90;;;;;;5042094;28;20488;-72
2023/04/29 02:38:11;;;;;;;5.38;3.35;;;10.30;99.90;;;;;;5040692;28;20414;-72
2023/04/29 02:40:44;;;;;;;10.30;2.00;;;10.40;99.90;;;;;;5071823;28;20492;-72
2023/04/29 02:43:11;;;;;;;1.73;1.63;;;10.50;99.90;;;;;;5056907;28;20143;-72
2023/04/29 02:45:38;;;;;;;0.73;0.30;;;10.60;99.90;;;;;;5073845;28;20780;-72
2023/04/29 02:48:06;;;;;;;0.75;0.55;;;10.70;99.90;;;;;;5063796;28;20033;-72
2023/04/29 02:50:32;;;;;;;5.72;3.97;;;10.70;99.90;;;;;;5050170;28;20033;-72
2023/04/29 02:52:59;;;;;;;4.75;2.35;;;10.50;99.90;;;;;;5045717;28;20045;-72
2023/04/29 02:55:25;;;;;;;25.13;7.18;;;10.60;99.90;;;;;;5053209;28;20032;-72
2023/04/29 02:57:52;;;;;;;0.70;0.70;;;10.50;99.90;;;;;;5053722;28;20014;-72
2023/04/29 03:00:18;;;;;;;3.58;1.85;;;10.40;99.90;;;;;;5050459;28;20061;-72
2023/04/29 03:02:44;;;;;;;0.52;0.52;;;10.50;99.90;;;;;;5042535;28;20500;-72
2023/04/29 03:05:10;;;;;;;1.85;0.60;;;10.50;99.90;;;;;;5048030;28;20109;-72
2023/04/29 03:07:36;;;;;;;1.38;1.27;;;10.60;99.90;;;;;;5043367;28;20436;-72
2023/04/29 03:10:02;;;;;;;13.32;3.50;;;10.40;99.90;;;;;;5053004;28;20031;-72
2023/04/29 03:12:28;;;;;;;2.95;2.75;;;10.30;99.90;;;;;;5053575;28;20386;-72
2023/04/29 03:14:54;;;;;;;1.58;1.25;;;10.20;99.90;;;;;;5054418;28;20040;-73
2023/04/29 03:17:22;;;;;;;6.78;3.40;;;10.20;99.90;;;;;;5050255;28;20036;-72
2023/04/29 03:19:48;;;;;;;8.80;5.80;;;10.30;99.90;;;;;;5046686;28;20826;-72
2023/04/29 03:22:14;;;;;;;2.15;1.95;;;10.00;99.90;;;;;;5049872;28;20073;-72
2023/04/29 03:24:42;;;;;;;1.92;1.58;;;10.00;99.90;;;;;;5043088;28;20295;-72
2023/04/29 03:27:08;;;;;;;2.78;2.53;;;10.10;99.90;;;;;;5053085;28;20451;-72
2023/04/29 03:29:33;;;;;;;1.25;0.52;;;10.10;99.90;;;;;;5049715;28;20025;-72
2023/04/29 03:32:01;;;;;;;1.25;1.20;;;10.10;99.90;;;;;;5044222;28;20021;-73
2023/04/29 03:34:27;;;;;;;3.38;1.70;;;10.00;99.90;;;;;;5049615;28;20037;-72
2023/04/29 03:37:15;;;;;;;0.35;0.35;;;10.20;99.90;;;;;;5049140;28;20037;-72
2023/04/29 03:39:45;;;;;;;9.63;2.90;;;10.10;99.90;;;;;;5049052;28;20057;-72
2023/04/29 03:42:12;;;;;;;0.65;0.65;;;10.10;99.90;;;;;;5047257;28;20029;-73
2023/04/29 03:44:38;;;;;;;3.05;2.17;;;10.20;99.90;;;;;;5053957;28;20489;-72
2023/04/29 03:47:05;;;;;;;1.50;1.40;;;10.10;99.90;;;;;;5048901;28;20025;-72
2023/04/29 03:49:31;;;;;;;4.72;3.17;;;10.10;99.90;;;;;;5064194;28;20057;-72
2023/04/29 03:51:57;;;;;;;9.13;1.92;;;10.10;99.90;;;;;;5040042;28;20072;-72
2023/04/29 03:54:23;;;;;;;6.70;3.17;;;10.00;99.90;;;;;;5048628;28;20087;-72
2023/04/29 03:56:49;;;;;;;5.60;3.33;;;10.00;99.90;;;;;;5048920;28;20549;-72
2023/04/29 03:59:15;;;;;;;2.67;1.88;;;9.90;99.90;;;;;;5046138;28;20059;-73
2023/04/29 04:01:41;;;;;;;2.17;2.08;;;9.80;99.90;;;;;;5048955;28;20057;-71
2023/04/29 04:04:07;;;;;;;3.45;2.08;;;9.80;99.90;;;;;;5044186;28;20056;-72
2023/04/29 04:06:35;;;;;;;0.68;0.68;;;9.80;99.90;;;;;;5048634;28;20563;-72
2023/04/29 04:09:01;;;;;;;3.20;1.75;;;10.00;99.90;;;;;;5055616;28;20022;-72
2023/04/29 04:11:29;;;;;;;2.20;1.63;;;10.00;99.90;;;;;;5048555;28;20029;-72
2023/04/29 04:14:01;;;;;;;;;;;10.00;99.90;;;;;;5053700;28;20431;-72
2023/04/29 04:16:27;;;;;;;2.08;1.48;;;10.00;99.90;;;;;;5051676;28;19913;-74
2023/04/29 04:18:53;;;;;;;2.75;0.50;;;10.00;99.90;;;;;;5048836;28;20029;-71
2023/04/29 04:21:19;;;;;;;1.02;1.02;;;10.10;99.90;;;;;;5042201;28;20029;-74
2023/04/29 04:23:53;;;;;;;0.50;0.50;;;10.10;99.90;;;;;;5048687;28;20029;-72
2023/04/29 04:26:21;;;;;;;9.60;2.53;;;10.20;99.90;;;;;;5074295;28;20032;-72
2023/04/29 04:29:05;;;;;;;0.10;0.10;;;10.20;99.90;;;;;;5036077;28;20390;-72
2023/04/29 04:31:54;;;;;;;1.38;1.20;;;10.30;99.90;;;;;;5046357;28;20033;-72
2023/04/29 04:34:21;;;;;;;1.95;1.65;;;10.20;99.90;;;;;;5032137;28;20038;-72
2023/04/29 04:36:49;;;;;;;2.08;1.27;;;10.20;99.90;;;;;;5046378;28;20124;-72
2023/04/29 04:39:15;;;;;;;0.77;0.77;;;10.10;99.90;;;;;;5048060;28;20116;-71
2023/04/29 04:41:41;;;;;;;0.90;0.38;;;10.20;99.90;;;;;;5041171;28;20060;-72
2023/04/29 04:44:07;;;;;;;1.02;0.98;;;10.30;99.90;;;;;;5084275;28;20043;-71
2023/04/29 04:46:52;;;;;;;1.63;1.27;;;10.30;99.90;;;;;;5052506;28;20044;-72
2023/04/29 04:49:33;;;;;;;0.25;0.25;;;10.30;99.90;;;;;;5048125;28;20060;-72
2023/04/29 04:52:00;;;;;;;0.10;0.10;;;10.50;99.90;;;;;;5051131;28;20029;-72
2023/04/29 04:54:26;;;;;;;0.10;0.10;;;10.50;99.90;;;;;;5048063;28;20379;-72
2023/04/29 04:57:04;;;;;;;1.42;0.73;;;10.50;99.90;;;;;;5077874;28;20029;-72
2023/04/29 04:59:29;;;;;;;1.17;1.17;;;10.50;99.90;;;;;;5032312;28;20494;-72
2023/04/29 05:01:55;;;;;;;0.38;0.38;;;10.30;99.90;;;;;;5048000;28;20028;-71
2023/04/29 05:04:22;;;;;;;0.63;0.63;;;10.30;99.90;;;;;;5051431;28;20581;-71
2023/04/29 05:06:48;;;;;;;0.10;0.10;;;10.50;99.90;;;;;;5047578;28;20026;-72
2023/04/29 05:09:14;;;;;;;0.10;0.10;;;10.40;99.90;;;;;;5039929;28;20025;-72
2023/04/29 05:11:40;;;;;;;5.50;1.13;;;10.50;99.90;;;;;;5050211;28;20029;-72
2023/04/29 05:14:10;;;;;;;2.13;1.92;;;10.60;99.90;;;;;;5047852;28;20034;-72
2023/04/29 05:16:36;;;;;;;2.00;1.73;;;10.70;99.90;;;;;;5048800;28;20047;-72
2023/04/29 05:19:02;;;;;;;2.10;1.90;;;10.60;99.90;;;;;;5052447;28;20029;-71
2023/04/29 05:21:32;;;;;;;0.13;0.13;;;10.60;99.90;;;;;;5048328;28;20378;-72
2023/04/29 05:23:58;;;;;;;0.52;0.52;;;10.70;99.90;;;;;;5047914;28;20038;-71
2023/04/29 05:26:25;;;;;;;2.90;1.02;;;10.50;99.90;;;;;;5044286;28;20029;-72
2023/04/29 05:28:54;;;;;;;0.10;0.10;;;10.60;99.90;;;;;;5050723;28;20045;-71
2023/04/29 05:31:20;;;;;;;0.22;0.22;;;10.60;99.90;;;;;;5047481;28;20048;-72
2023/04/29 05:33:46;;;;;;;0.10;0.10;;;10.90;99.90;;;;;;5048639;28;20025;-72
2023/04/29 05:36:12;;;;;;;2.55;0.65;;;11.20;99.90;;;;;;5047124;28;20095;-72
2023/04/29 05:38:38;;;;;;;0.28;0.17;;;11.10;99.90;;;;;;5050385;28;20540;-72
2023/04/29 05:41:06;;;;;;;2.47;1.75;;;11.20;99.90;;;;;;5030888;28;20030;-71
2023/04/29 05:43:46;;;;;;;0.10;0.10;;;11.20;99.90;;;;;;5030591;28;20036;-72
2023/04/29 05:46:13;;;;;;;0.28;0.22;;;11.10;99.90;;;;;;5031149;28;20018;-72
2023/04/29 05:48:39;;;;;;;1.00;0.88;;;11.00;99.90;;;;;;5025546;28;20031;-72
2023/04/29 05:51:05;;;;;;;0.40;0.40;;;10.90;99.90;;;;;;5026011;28;20097;-72
2023/04/29 05:53:32;;;;;;;0.10;0.10;;;10.40;99.90;;;;;;5034765;28;20040;-74
2023/04/29 05:55:58;;;;;;;0.20;0.20;;;10.40;99.90;;;;;;5033639;28;20028;-72
2023/04/29 05:58:24;;;;;;;0.10;0.10;;;10.60;99.90;;;;;;5035828;28;20021;-72
2023/04/29 06:00:51;;;;;;;0.20;0.20;;;10.90;99.90;;;;;;5032211;28;20029;-70
2023/04/29 06:03:21;;;;;;;0.00;0.00;;;10.90;99.90;;;;;;5037052;28;20028;-71
2023/04/29 06:05:51;;;;;;;0.55;0.55;;;10.70;99.90;;;;;;5048990;28;20067;-71
2023/04/29 06:08:32;;;;;;;0.90;0.43;;;10.50;99.90;;;;;;5037651;28;20473;-71
2023/04/29 06:11:04;;;;;;;0.45;0.45;;;10.70;99.90;;;;;;5040379;28;20024;-71
2023/04/29 06:13:31;;;;;;;0.20;0.20;;;10.50;99.90;;;;;;5073718;28;20089;-71
2023/04/29 06:15:58;;;;;;;1.02;0.95;;;10.40;99.90;;;;;;5067412;28;20491;-71
2023/04/29 06:18:30;;;;;;;0.60;0.52;;;10.40;99.90;;;;;;5020490;28;20057;-73
2023/04/29 06:20:57;;;;;;;4.65;3.20;;;10.40;99.90;;;;;;5049102;28;20029;-73
2023/04/29 06:23:23;;;;;;;1.30;0.65;;;10.30;99.90;;;;;;5041783;28;20032;-73
2023/04/29 06:25:50;;;;;;;0.30;0.30;;;10.30;99.90;;;;;;5035675;28;20025;-74
2023/04/29 06:28:16;;;;;;;2.05;1.95;;;10.20;99.90;;;;;;5035600;28;20414;-72
2023/04/29 06:30:42;;;;;;;0.95;0.95;;;10.20;99.90;;;;;;5035467;28;20044;-72
2023/04/29 06:33:08;;;;;;;3.55;3.33;;;10.30;99.90;;;;;;5043559;28;20033;-71
2023/04/29 06:35:39;;;;;;;2.13;2.00;;;10.40;99.90;;;;;;5034836;28;20021;-71
2023/04/29 06:38:06;;;;;;;0.10;0.10;;;10.40;99.90;;;;;;5057371;28;20508;-71
2023/04/29 06:40:51;;;;;;;1.67;0.98;;;10.40;99.90;;;;;;5054445;28;20098;-72
2023/04/29 06:43:42;;;;;;;0.10;0.10;;;10.50;99.90;;;;;;5041363;28;20494;-71
2023/04/29 06:46:27;;;;;;;1.38;1.02;;;10.80;99.90;;;;;;5041726;28;20362;-71
2023/04/29 06:49:02;;;;;;;2.40;2.05;;;10.80;99.90;;;;;;5038714;28;20108;-72
2023/04/29 06:51:31;;;;;;;2.20;1.95;;;10.70;99.90;;;;;;5032924;28;20025;-72
2023/04/29 06:53:57;;;;;;;0.95;0.95;;;10.60;99.90;;;;;;5037583;28;20033;-71
2023/04/29 06:56:23;;;;;;;0.65;0.65;;;10.60;99.90;;;;;;5040229;28;20028;-71
2023/04/29 06:58:49;;;;;;;1.75;0.95;;;10.60;99.90;;;;;;5037977;28;20508;-72
2023/04/29 07:01:15;;;;;;;0.10;0.10;;;10.60;99.90;;;;;;5038817;28;20169;-71
2023/04/29 07:03:42;;;;;;;1.20;1.10;;;10.60;99.90;;;;;;5042186;28;20024;-71
2023/04/29 07:06:08;;;;;;;1.52;1.42;;;10.60;99.90;;;;;;5051610;28;20040;-71
2023/04/29 07:08:34;;;;;;;4.20;2.88;;;10.50;99.90;;;;;;5061260;28;20086;-71
2023/04/29 07:10:59;;;;;;;0.40;0.40;;;10.60;99.90;;;;;;5059045;28;20485;-71
2023/04/29 07:13:25;;;;;;;1.48;1.38;;;10.60;99.90;;;;;;5041466;28;20028;-71
2023/04/29 07:15:51;;;;;;;0.45;0.45;;;10.60;99.90;;;;;;5071102;28;20591;-71
2023/04/29 07:18:17;;;;;;;2.40;2.20;;;10.70;99.90;;;;;;5020714;28;20029;-73
2023/04/29 07:20:43;;;;;;;8.05;3.55;;;10.90;99.90;;;;;;5039986;28;20067;-71
2023/04/29 07:23:09;;;;;;;1.60;0.75;;;10.80;99.90;;;;;;5031766;28;20108;-73
2023/04/29 07:25:35;;;;;;;5.00;4.22;;;10.80;99.90;;;;;;5041077;28;20036;-73
2023/04/29 07:28:02;;;;;;;0.88;0.88;;;10.90;99.90;;;;;;5051935;28;20051;-71
2023/04/29 07:30:28;;;;;;;0.47;0.47;;;10.90;99.90;;;;;;5062938;28;20021;-71
2023/04/29 07:32:54;;;;;;;4.45;3.08;;;11.00;99.90;;;;;;5037624;28;20044;-73
2023/04/29 07:35:20;;;;;;;3.83;3.50;;;11.10;99.90;;;;;;5056997;28;20033;-74
2023/04/29 07:37:47;;;;;;;2.75;2.42;;;11.00;99.90;;;;;;5049433;28;20025;-74
2023/04/29 07:40:12;;;;;;;1.42;1.38;;;11.10;99.90;;;;;;5051122;28;20040;-73
2023/04/29 07:42:38;;;;;;;12.40;4.00;;;11.20;99.90;;;;;;5056080;28;20913;-70
2023/04/29 07:45:06;;;;;;;3.05;2.38;;;11.20;99.90;;;;;;5037435;28;20025;-70
2023/04/29 07:47:32;;;;;;;7.78;3.05;;;11.20;99.90;;;;;;5057637;28;20031;-71
2023/04/29 07:49:59;;;;;;;0.10;0.10;;;11.30;99.90;;;;;;5065401;28;20498;-70
2023/04/29 07:52:25;;;;;;;7.30;3.97;;;11.40;99.90;;;;;;5062145;28;20381;-71
2023/04/29 07:54:51;;;;;;;2.25;2.03;;;11.70;99.90;;;;;;5052797;28;20029;-71
2023/04/29 07:57:17;;;;;;;0.77;0.77;;;11.60;99.90;;;;;;5059688;28;20530;-73
2023/04/29 07:59:42;;;;;;;0.32;0.32;;;11.80;99.90;;;;;;5058242;28;20025;-71
2023/04/29 08:02:08;;;;;;;2.10;1.95;;;11.90;99.90;;;;;;5051717;28;20428;-72
2023/04/29 08:04:41;;;;;;;1.15;0.68;;;11.60;99.90;;;;;;5057150;28;20033;-73
2023/04/29 08:07:09;;;;;;;3.92;1.80;;;11.70;99.90;;;;;;5054114;28;20501;-73
2023/04/29 08:09:35;;;;;;;1.20;1.20;;;11.80;99.90;;;;;;5058170;28;20032;-74
2023/04/29 08:12:03;;;;;;;0.63;0.63;;;11.90;99.90;;;;;;5051286;28;20108;-73
2023/04/29 08:14:29;;;;;;;7.15;3.10;;;12.20;99.90;;;;;;5039500;28;20043;-73
2023/04/29 08:16:55;;;;;;;3.20;2.60;;;12.30;99.90;;;;;;5094573;28;20020;-73
2023/04/29 08:19:21;;;;;;;7.28;1.48;;;12.40;99.90;;;;;;5071603;28;20024;-73
2023/04/29 08:21:48;;;;;;;2.65;1.02;;;12.80;99.90;;;;;;5053091;28;20100;-73
2023/04/29 08:24:14;;;;;;;0.40;0.40;;;12.60;99.90;;;;;;5049691;28;20116;-72
2023/04/29 08:26:41;;;;;;;0.55;0.55;;;12.80;99.90;;;;;;5093073;28;20619;-73
2023/04/29 08:29:07;;;;;;;0.57;0.57;;;12.80;99.90;;;;;;5062227;28;20032;-71
2023/04/29 08:31:33;;;;;;;2.25;1.60;;;13.00;99.90;;;;;;5060789;28;20021;-72
2023/04/29 08:33:59;;;;;;;0.08;0.08;;;13.10;99.90;;;;;;5053027;28;20041;-71
2023/04/29 08:36:27;;;;;;;8.23;2.05;;;13.20;99.90;;;;;;5052830;28;20033;-71
2023/04/29 08:38:53;;;;;;;3.17;2.00;;;13.10;99.90;;;;;;5061373;28;20025;-71
2023/04/29 08:41:19;;;;;;;0.95;0.95;;;13.10;99.90;;;;;;5062212;28;20025;-71
2023/04/29 08:43:45;;;;;;;0.10;0.10;;;12.80;99.90;;;;;;5052033;28;20044;-71
2023/04/29 08:46:11;;;;;;;0.52;0.52;;;13.10;99.90;;;;;;5052458;28;20027;-71
2023/04/29 08:48:41;;;;;;;0.57;0.57;;;13.80;99.90;;;;;;5063125;28;20039;-71
2023/04/29 08:51:10;;;;;;;0.10;0.10;;;13.90;99.90;;;;;;5057409;28;20560;-71
2023/04/29 08:53:37;;;;;;;3.78;1.63;;;14.10;99.90;;;;;;5061558;28;20086;-71
2023/04/29 08:56:11;;;;;;;0.68;0.68;;;14.10;99.90;;;;;;5053807;28;20017;-71
2023/04/29 08:58:40;;;;;;;0.65;0.65;;;14.10;99.90;;;;;;5057493;28;20033;-73
2023/04/29 09:01:08;;;;;;;0.75;0.75;;;14.30;99.90;;;;;;5055198;28;20027;-73
2023/04/29 09:03:43;;;;;;;3.72;1.45;;;14.50;99.90;;;;;;5057134;28;20079;-71
2023/04/29 09:06:11;;;;;;;0.65;0.45;;;14.40;99.90;;;;;;5059185;28;20107;-73
2023/04/29 09:08:38;;;;;;;2.17;1.25;;;14.20;99.90;;;;;;5056849;28;20020;-72
2023/04/29 09:11:09;;;;;;;0.85;0.80;;;14.30;99.90;;;;;;5054308;28;20048;-73
2023/04/29 09:13:35;;;;;;;7.68;5.05;;;14.50;99.90;;;;;;5056811;28;20123;-71
2023/04/29 09:16:00;;;;;;;0.45;0.30;;;14.20;99.90;;;;;;5066266;28;20124;-73
2023/04/29 09:18:49;;;;;;;6.97;1.20;;;14.50;99.90;;;;;;5058463;28;20032;-72
2023/04/29 09:21:20;;;;;;;1.17;1.08;;;14.40;99.90;;;;;;5057723;28;20063;-73
2023/04/29 09:23:48;;;;;;;0.70;0.70;;;14.30;99.90;;;;;;5053157;28;20068;-72
2023/04/29 09:26:15;;;;;;;0.10;0.10;;;14.40;99.90;;;;;;5062311;28;20032;-72
2023/04/29 09:28:43;;;;;;;1.20;0.93;;;14.40;99.90;;;;;;5059850;28;20025;-72
2023/04/29 09:31:10;;;;;;;0.20;0.20;;;14.30;99.90;;;;;;5059501;28;20029;-72
2023/04/29 09:33:54;;;;;;;4.35;2.85;;;14.00;99.90;;;;;;5053615;28;20045;-72
2023/04/29 09:36:55;;;;;;;2.03;1.52;;;13.90;99.90;;;;;;5051010;28;20025;-72
2023/04/29 09:39:22;;;;;;;0.20;0.15;;;14.10;99.90;;;;;;5034793;28;20470;-72
2023/04/29 09:41:54;;;;;;;11.00;2.13;;;14.10;99.90;;;;;;5060265;28;20103;-72
2023/04/29 09:44:26;;;;;;;0.63;0.63;;;14.00;99.90;;;;;;5054249;28;20473;-72
2023/04/29 09:47:01;;;;;;;;;;;13.70;99.90;;;;;;5052988;28;20083;-72
2023/04/29 09:49:31;;;;;;;1.42;1.17;;;13.40;99.90;;;;;;5047812;28;19970;-72
2023/04/29 09:52:17;;;;;;;0.20;0.20;;;13.30;99.90;;;;;;5056555;28;20040;-72
2023/04/29 09:54:43;;;;;;;0.57;0.57;;;13.20;99.90;;;;;;5056661;28;20045;-71
2023/04/29 09:57:11;;;;;;;1.10;0.55;;;13.60;99.90;;;;;;5060597;28;20025;-72
2023/04/29 09:59:39;;;;;;;0.25;0.25;;;13.50;99.90;;;;;;5061669;28;20037;-72
2023/04/29 10:02:19;;;;;;;0.10;0.10;;;13.90;99.90;;;;;;5055670;28;20477;-71
2023/04/29 10:04:51;;;;;;;1.50;1.40;;;14.00;99.90;;;;;;5065383;28;20044;-72
2023/04/29 10:07:17;;;;;;;1.05;1.05;;;14.00;99.90;;;;;;5066462;28;20028;-72
2023/04/29 10:09:47;;;;;;;3.17;2.47;;;13.50;99.90;;;;;;5059453;28;20077;-73
2023/04/29 10:12:18;;;;;;;1.23;0.95;;;13.20;99.90;;;;;;5056956;28;20017;-72
2023/04/29 10:15:06;;;;;;;0.13;0.13;;;13.10;99.90;;;;;;5058914;28;20056;-72
2023/04/29 10:17:48;;;;;;;1.38;1.27;;;13.20;99.90;;;;;;5053906;28;20474;-72
2023/04/29 10:20:17;;;;;;;;;;;13.40;99.90;;;;;;5056422;28;20416;-72
2023/04/29 10:22:47;;;;;;;3.42;2.00;;;13.60;99.90;;;;;;5040185;28;19935;-72
2023/04/29 10:25:18;;;;;;;4.70;1.23;;;13.60;99.90;;;;;;5038224;28;20287;-72
2023/04/29 10:27:45;;;;;;;0.20;0.20;;;13.90;99.90;;;;;;5055163;28;20025;-73
2023/04/29 10:30:13;;;;;;;0.80;0.80;;;14.10;99.90;;;;;;5055140;28;20036;-73
2023/04/29 10:32:43;;;;;;;0.68;0.45;;;14.80;99.90;;;;;;5036098;28;20066;-72
2023/04/29 10:35:11;;;;;;;1.90;1.80;;;14.70;99.90;;;;;;5054663;28;20037;-72
2023/04/29 10:37:37;;;;;;;0.22;0.22;;;14.80;99.90;;;;;;5055286;28;20040;-73
2023/04/29 10:40:15;;;;;;;0.15;0.15;;;14.40;99.90;;;;;;5046395;28;20032;-72
2023/04/29 10:42:41;;;;;;;1.75;0.57;;;14.80;99.90;;;;;;5050576;28;20041;-73
2023/04/29 10:45:26;;;;;;;16.35;1.13;;;14.90;99.90;;;;;;5052838;28;20020;-72
2023/04/29 10:48:04;;;;;;;1.00;0.57;;;15.10;99.90;;;;;;5053686;28;20036;-73
2023/04/29 10:50:36;;;;;;;0.00;0.00;;;15.00;99.90;;;;;;5050186;28;20037;-73
2023/04/29 10:53:03;;;;;;;1.80;1.63;;;15.00;99.90;;;;;;5054718;28;20090;-72
2023/04/29 10:55:30;;;;;;;0.88;0.80;;;15.10;99.90;;;;;;5053018;28;20036;-72
2023/04/29 10:57:56;;;;;;;14.45;5.30;;;15.20;99.90;;;;;;5052943;28;20033;-73
2023/04/29 11:00:26;;;;;;;3.13;0.90;;;15.40;99.90;;;;;;5054787;28;20024;-72
2023/04/29 11:03:00;;;;;;;0.00;0.00;;;15.50;99.90;;;;;;5054668;28;20028;-72
2023/04/29 11:05:33;;;;;;;0.95;0.88;;;15.60;99.90;;;;;;5054344;28;20021;-73
2023/04/29 11:08:15;;;;;;;1.35;0.47;;;15.80;99.90;;;;;;5070222;28;20431;-72
2023/04/29 11:10:42;;;;;;;1.38;0.95;;;15.90;99.90;;;;;;5054245;28;20032;-73
2023/04/29 11:13:30;;;;;;;0.98;0.98;;;15.80;99.90;;;;;;5054335;28;20033;-73
2023/04/29 11:16:09;;;;;;;0.10;0.10;;;15.60;99.90;;;;;;5054511;28;20037;-73
2023/04/29 11:18:55;;;;;;;1.45;1.00;;;15.90;99.90;;;;;;5054359;28;20520;-73
2023/04/29 11:21:21;;;;;;;0.20;0.20;;;16.30;99.90;;;;;;5054049;28;20619;-73
2023/04/29 11:23:50;;;;;;;0.00;0.00;;;16.60;99.90;;;;;;5069281;28;20052;-73
2023/04/29 11:26:20;;;;;;;0.20;0.20;;;16.80;99.90;;;;;;5049677;28;20038;-72
2023/04/29 11:28:47;;;;;;;0.00;0.00;;;16.60;99.90;;;;;;5052682;28;20005;-73
2023/04/29 11:31:12;;;;;;;1.02;0.32;;;16.70;99.90;;;;;;5054075;28;20071;-73
2023/04/29 11:33:38;;;;;;;0.43;0.43;;;16.80;99.90;;;;;;5051989;28;20434;-73
2023/04/29 11:36:04;;;;;;;0.10;0.10;;;16.90;99.90;;;;;;5053961;28;20025;-73
2023/04/29 11:38:30;;;;;;;0.17;0.17;;;16.90;99.90;;;;;;5049911;28;20022;-73
2023/04/29 11:40:58;;;;;;;1.17;1.15;;;17.10;99.90;;;;;;5053762;28;20380;-73
2023/04/29 11:43:24;;;;;;;0.00;0.00;;;16.70;99.90;;;;;;5053962;28;20021;-73
2023/04/29 11:45:51;;;;;;;0.20;0.20;;;17.20;99.90;;;;;;5032348;28;20026;-73
2023/04/29 11:48:18;;;;;;;0.00;0.00;;;17.30;99.90;;;;;;5036157;28;20477;-73
2023/04/29 11:50:50;;;;;;;0.08;0.08;;;17.40;99.90;;;;;;5053394;28;20021;-73
2023/04/29 11:53:18;;;;;;;;;;;17.60;99.90;;;;;;5053802;28;20043;-73
2023/04/29 11:55:44;;;;;;;0.00;0.00;;;17.80;98.90;;;;;;5053500;28;19904;-73
2023/04/29 11:58:10;;;;;;;1.80;0.80;;;18.30;99.60;;;;;;5053624;28;20052;-73
2023/04/29 12:00:36;;;;;;;0.00;0.00;;;18.70;99.00;;;;;;5053453;28;20071;-73
2023/04/29 12:03:23;;;;;;;0.52;0.52;;;18.90;98.50;;;;;;5035412;28;20044;-73
2023/04/29 12:05:53;;;;;;;3.00;0.90;;;18.40;98.00;;;;;;5053431;28;20033;-73
2023/04/29 12:08:27;;;;;;;0.22;0.17;;;18.60;96.90;;;;;;5052685;28;20029;-73
2023/04/29 12:10:57;;;;;;;0.43;0.43;;;18.10;98.00;;;;;;5031877;28;20026;-73
2023/04/29 12:13:29;;;;;;;6.03;1.35;;;18.50;98.00;;;;;;5051216;28;20025;-73
2023/04/29 12:15:56;;;;;;;0.13;0.13;;;18.30;98.30;;;;;;5053394;28;20497;-72
2023/04/29 12:18:22;;;;;;;0.50;0.50;;;18.10;98.40;;;;;;5053262;28;20037;-73
2023/04/29 12:20:52;;;;;;;0.00;0.00;;;17.90;98.80;;;;;;5035133;28;20068;-72
2023/04/29 12:23:21;;;;;;;2.10;1.48;;;17.90;99.10;;;;;;5052956;28;20065;-73
2023/04/29 12:25:58;;;;;;;1.75;1.55;;;17.30;98.60;;;;;;5053110;28;20390;-73
2023/04/29 12:28:26;;;;;;;0.10;0.10;;;17.10;99.90;;;;;;5053115;28;20108;-72
2023/04/29 12:30:53;;;;;;;0.38;0.38;;;17.20;99.90;;;;;;5035128;28;20547;-73
2023/04/29 12:33:21;;;;;;;3.30;1.20;;;17.40;99.70;;;;;;5053036;28;20048;-73
2023/04/29 12:35:51;;;;;;;8.23;1.50;;;17.40;99.30;;;;;;5054533;28;20021;-72
2023/04/29 12:38:28;;;;;;;0.30;0.30;;;17.30;99.40;;;;;;5053133;28;20032;-72
2023/04/29 12:40:55;;;;;;;0.15;0.15;;;17.40;99.30;;;;;;5035019;28;20033;-74
2023/04/29 12:43:28;;;;;;;0.00;0.00;;;17.50;98.80;;;;;;5048948;28;20021;-73
2023/04/29 12:46:01;;;;;;;0.15;0.15;;;17.40;99.50;;;;;;5026078;28;20454;-73
2023/04/29 12:48:33;;;;;;;0.10;0.10;;;17.30;99.90;;;;;;5052982;28;20048;-73
2023/04/29 12:51:00;;;;;;;2.03;0.65;;;17.40;99.90;;;;;;5052938;28;20056;-73
2023/04/29 12:53:28;;;;;;;0.85;0.63;;;17.40;99.50;;;;;;5052838;28;20029;-72
2023/04/29 12:55:54;;;;;;;0.20;0.10;;;16.80;99.30;;;;;;5052519;28;20029;-73
2023/04/29 12:58:20;;;;;;;1.67;0.75;;;16.60;99.90;;;;;;5052907;28;20381;-73
2023/04/29 13:00:46;;;;;;;1.45;1.35;;;17.50;99.90;;;;;;5052748;28;20029;-73